Ethelsville, Alabama
Current Conditions -  °F | °C
As of 6:58 AM on Monday 20 Oct 2014 (Local Time) from KCBM Reporting Station
Haze Haze  
Wind Chill: 42°   Ceiling: Unl
Heat Index: 42°   Visibility: 4mi
Dew Point: 42°   Wind: 0mph
Humidity: 100%   Direction: NA
Pressure: 30.09"   Gusts: NA
Location:  33.42°N, 88.22°W
Report Text: KCBM 201158Z AUTO 00000KT 4SM BR CLR 06/06 A3009 RMK AO2 VIS M1/4 RWY13C SLP193 60000 70001 T00570057 10079 20057 52006 $
Loading
Personal Weather Stations






























Interactive Weather Map
Tropical Storm Tracking
New forecast layout! Learn more

10-Day Weather Forecast

Advertisements
Track Severe Weather on mobile